Time;durP1;ratioP1;P1;durP2;ratioP2;P2;SDS_P1;SDS_P2;PMS_P1;PMS_P2;Temp;Humidity;BMP_temperature;BMP_pressure;BME280_temperature;BME280_humidity;BME280_pressure;Samples;Min_cycle;Max_cycle;Signal;HPM_P1;HPM_P2
2023/10/04 00:02:12;;;;;;;5.28;2.20;;;;;;;14.41;100.00;100836.44;5074701;28;20037;-78
2023/10/04 00:04:39;;;;;;;3.30;1.85;;;;;;;14.30;100.00;100847.00;5073535;28;20024;-78
2023/10/04 00:07:06;;;;;;;6.50;2.10;;;;;;;14.33;100.00;100860.41;5074803;28;20020;-79
2023/10/04 00:09:33;;;;;;;5.15;2.00;;;;;;;14.28;100.00;100861.88;5073545;28;20455;-79
2023/10/04 00:12:00;;;;;;;4.47;2.20;;;;;;;14.28;100.00;100864.00;5073216;28;20036;-78
2023/10/04 00:14:28;;;;;;;7.70;2.63;;;;;;;14.22;100.00;100866.00;5066272;28;20392;-79
2023/10/04 00:17:08;;;;;;;4.57;1.98;;;;;;;14.19;100.00;100869.88;5074654;28;20104;-80
2023/10/04 00:19:34;;;;;;;6.88;2.10;;;;;;;14.10;100.00;100875.78;5073273;28;20048;-79
2023/10/04 00:22:08;;;;;;;6.45;2.47;;;;;;;14.08;100.00;100882.06;5074338;28;20024;-79
2023/10/04 00:24:35;;;;;;;6.15;3.13;;;;;;;14.02;100.00;100875.44;5074495;28;20023;-80
2023/10/04 00:27:00;;;;;;;12.15;2.90;;;;;;;13.98;100.00;100877.75;5072734;28;20017;-79
2023/10/04 00:29:25;;;;;;;8.55;3.08;;;;;;;13.92;100.00;100883.41;5072613;28;20078;-79
2023/10/04 00:31:51;;;;;;;7.30;3.30;;;;;;;13.93;100.00;100881.34;5072806;28;20444;-81
2023/10/04 00:34:19;;;;;;;8.38;3.17;;;;;;;13.92;100.00;100891.22;5073057;28;20580;-79
2023/10/04 00:36:46;;;;;;;8.95;3.65;;;;;;;13.92;100.00;100902.72;5074187;28;20016;-79
2023/10/04 00:39:13;;;;;;;5.95;3.05;;;;;;;13.83;100.00;100889.31;5072430;28;20013;-79
2023/10/04 00:41:50;;;;;;;6.40;2.95;;;;;;;13.81;100.00;100899.69;5072684;28;20032;-79
2023/10/04 00:44:22;;;;;;;9.43;4.63;;;;;;;13.73;100.00;100899.34;5072609;28;20354;-81
2023/10/04 00:46:48;;;;;;;7.97;3.05;;;;;;;13.75;100.00;100916.06;5072562;28;20044;-81
2023/10/04 00:49:18;;;;;;;12.27;2.90;;;;;;;13.63;100.00;100920.88;5071377;28;20047;-79
2023/10/04 00:51:43;;;;;;;11.38;2.78;;;;;;;13.60;100.00;100932.53;5072711;28;20029;-79
2023/10/04 00:54:15;;;;;;;10.02;2.90;;;;;;;13.60;100.00;100930.47;5054673;28;20028;-80
2023/10/04 00:56:41;;;;;;;7.18;2.72;;;;;;;13.53;100.00;100942.38;5071716;28;20458;-81
2023/10/04 00:59:11;;;;;;;8.68;3.55;;;;;;;13.48;100.00;100943.03;5072821;28;20056;-81
2023/10/04 01:01:41;;;;;;;8.30;2.60;;;;;;;13.36;100.00;100924.03;5070480;28;20037;-80
2023/10/04 01:04:07;;;;;;;7.47;3.15;;;;;;;13.40;100.00;100942.66;5071276;28;20024;-79
2023/10/04 01:06:42;;;;;;;8.15;2.50;;;;;;;13.43;100.00;100952.34;5072596;28;20016;-78
2023/10/04 01:09:11;;;;;;;11.32;2.50;;;;;;;13.42;100.00;100960.19;5071673;28;20315;-79
2023/10/04 01:11:44;;;;;;;8.73;2.05;;;;;;;13.41;100.00;100970.06;5064698;28;20067;-77
2023/10/04 01:14:37;;;;;;;7.10;2.58;;;;;;;13.31;100.00;100962.84;5072871;28;20029;-79
2023/10/04 01:17:05;;;;;;;8.80;3.45;;;;;;;13.26;100.00;100972.16;5073714;28;20017;-81
2023/10/04 01:19:32;;;;;;;10.40;2.63;;;;;;;13.26;100.00;100977.09;5074175;28;20070;-79
2023/10/04 01:22:04;;;;;;;11.05;2.88;;;;;;;13.27;100.00;100993.03;5073952;28;20028;-76
2023/10/04 01:24:33;;;;;;;4.07;2.20;;;;;;;13.22;100.00;100993.75;5072960;28;20063;-78
2023/10/04 01:27:00;;;;;;;10.68;2.38;;;;;;;13.19;100.00;100989.00;5072571;28;20482;-78
2023/10/04 01:29:27;;;;;;;9.90;2.40;;;;;;;13.17;100.00;100980.09;5071912;28;20170;-79
2023/10/04 01:31:54;;;;;;;9.15;2.58;;;;;;;13.15;100.00;100992.03;5073271;28;20079;-78
2023/10/04 01:34:21;;;;;;;7.90;2.60;;;;;;;13.13;100.00;100991.75;5073265;28;20107;-79
2023/10/04 01:36:47;;;;;;;6.30;2.58;;;;;;;13.12;100.00;100993.03;5073373;28;20106;-78
2023/10/04 01:39:20;;;;;;;6.68;2.83;;;;;;;13.11;100.00;100988.59;5073163;28;20020;-81
2023/10/04 01:41:49;;;;;;;13.48;4.00;;;;;;;13.09;100.00;100994.03;5073553;28;20369;-80
2023/10/04 01:44:15;;;;;;;11.32;2.50;;;;;;;13.08;100.00;101001.06;5073652;28;20466;-78
2023/10/04 01:46:42;;;;;;;6.28;2.33;;;;;;;13.01;100.00;100992.81;5073645;28;20021;-78
2023/10/04 01:49:09;;;;;;;10.77;3.33;;;;;;;13.01;100.00;101010.84;5073507;28;20021;-77
2023/10/04 01:51:35;;;;;;;7.13;2.40;;;;;;;13.00;100.00;101006.38;5071977;28;20032;-79
2023/10/04 01:54:04;;;;;;;9.25;3.05;;;;;;;12.99;100.00;101016.28;5073170;28;20016;-79
2023/10/04 01:56:31;;;;;;;8.93;2.20;;;;;;;13.00;100.00;101023.59;5088355;28;20042;-79
2023/10/04 01:58:58;;;;;;;8.77;2.30;;;;;;;12.98;100.00;101029.06;5093318;28;20024;-78
2023/10/04 02:01:24;;;;;;;7.85;2.40;;;;;;;12.99;100.00;101041.31;5093363;28;20057;-77
2023/10/04 02:03:50;;;;;;;6.97;2.95;;;;;;;12.96;100.00;101027.94;5093328;28;20039;-78
2023/10/04 02:06:18;;;;;;;6.25;2.53;;;;;;;13.02;100.00;101023.91;5091125;28;20040;-78
2023/10/04 02:08:44;;;;;;;11.00;2.90;;;;;;;13.10;100.00;101045.19;5093256;28;20107;-79
2023/10/04 02:11:10;;;;;;;3.95;2.20;;;;;;;12.98;100.00;101005.31;5093073;28;20040;-77
2023/10/04 02:13:36;;;;;;;8.45;2.25;;;;;;;13.11;100.00;101028.75;5092733;28;20082;-79
2023/10/04 02:16:06;;;;;;;10.18;2.65;;;;;;;13.26;100.00;101048.88;5093339;28;20480;-79
2023/10/04 02:18:34;;;;;;;6.63;2.30;;;;;;;13.22;100.00;101028.19;5075119;28;20376;-78
2023/10/04 02:21:00;;;;;;;4.78;2.70;;;;;;;13.36;100.00;101031.06;5093308;28;20020;-78
2023/10/04 02:23:28;;;;;;;8.55;2.53;;;;;;;13.47;100.00;101044.81;5058160;28;20506;-77
2023/10/04 02:25:53;;;;;;;8.50;2.58;;;;;;;13.47;100.00;101039.06;5074676;28;20480;-77
2023/10/04 02:28:23;;;;;;;8.43;2.30;;;;;;;13.48;100.00;101032.84;5077735;28;20023;-78
2023/10/04 02:30:48;;;;;;;5.43;2.45;;;;;;;13.47;100.00;101042.75;5097095;28;20047;-77
2023/10/04 02:33:27;;;;;;;4.70;2.30;;;;;;;13.44;100.00;101026.50;5096992;28;20023;-79
2023/10/04 02:35:54;;;;;;;7.72;2.25;;;;;;;13.25;100.00;101005.00;5095431;28;20034;-81
2023/10/04 02:38:23;;;;;;;6.63;1.98;;;;;;;13.36;100.00;101028.19;5078462;28;20038;-78
2023/10/04 02:40:54;;;;;;;5.28;2.17;;;;;;;13.25;100.00;101027.19;5079032;28;20048;-78
2023/10/04 02:43:40;;;;;;;7.55;2.30;;;;;;;13.23;100.00;101030.56;5061547;28;20028;-77
2023/10/04 02:46:05;;;;;;;6.75;1.95;;;;;;;13.17;100.00;101029.66;5096873;28;20451;-78
2023/10/04 02:48:34;;;;;;;9.27;2.75;;;;;;;13.02;100.00;101015.31;5061626;28;20114;-78
2023/10/04 02:51:01;;;;;;;3.38;1.95;;;;;;;13.09;100.00;101045.69;5078534;28;20026;-79
2023/10/04 02:53:28;;;;;;;5.43;2.17;;;;;;;12.99;100.00;101029.84;5096609;28;20024;-79
2023/10/04 02:55:57;;;;;;;4.13;2.00;;;;;;;13.00;100.00;101055.16;5074510;28;20127;-76
2023/10/04 02:58:24;;;;;;;9.00;2.63;;;;;;;12.94;100.00;101039.94;5074941;28;20082;-83
2023/10/04 03:00:51;;;;;;;5.57;2.47;;;;;;;12.90;100.00;101035.66;5076394;28;20067;-84
2023/10/04 03:03:24;;;;;;;5.07;2.30;;;;;;;12.89;100.00;101052.09;5074921;28;20469;-84
2023/10/04 03:05:54;;;;;;;7.43;2.33;;;;;;;12.87;100.00;101060.38;5075944;28;20477;-84
2023/10/04 03:08:20;;;;;;;3.50;2.45;;;;;;;12.90;100.00;101065.13;5074882;28;20024;-84
2023/10/04 03:10:55;;;;;;;9.35;1.95;;;;;;;12.93;100.00;101066.22;5075965;28;20041;-85
2023/10/04 03:13:25;;;;;;;10.02;2.85;;;;;;;12.99;100.00;101070.81;5076057;28;20024;-84
2023/10/04 03:16:00;;;;;;;7.00;2.13;;;;;;;13.03;100.00;101064.88;5074293;28;20031;-85
2023/10/04 03:18:26;;;;;;;6.65;2.05;;;;;;;13.06;100.00;101066.75;5074458;28;20028;-84
2023/10/04 03:23:35;;;;;;;4.72;1.90;;;;;;;13.06;100.00;101069.63;5075998;28;20115;-84
2023/10/04 03:26:06;;;;;;;4.80;2.00;;;;;;;12.95;100.00;101061.56;5074520;28;20141;-85
2023/10/04 03:28:37;;;;;;;5.57;2.42;;;;;;;12.99;100.00;101070.00;5074069;28;20048;-85
2023/10/04 03:31:11;;;;;;;;;;;;;;;12.91;100.00;101080.25;5058923;28;20051;-85
2023/10/04 03:33:40;;;;;;;3.05;2.03;;;;;;;12.85;100.00;101083.00;5073971;28;19919;-84
2023/10/04 03:36:07;;;;;;;4.72;1.75;;;;;;;12.75;100.00;101077.84;5074050;28;20060;-84
2023/10/04 03:38:35;;;;;;;6.07;2.75;;;;;;;12.77;100.00;101084.69;5073957;28;20020;-86
2023/10/04 03:41:03;;;;;;;7.80;2.00;;;;;;;12.79;100.00;101087.84;5075122;28;20473;-84
2023/10/04 03:43:29;;;;;;;8.95;2.40;;;;;;;12.87;100.00;101102.63;5074990;28;20120;-85
2023/10/04 03:46:17;;;;;;;8.93;2.75;;;;;;;12.95;100.00;101110.34;5079591;28;20024;-84
2023/10/04 03:48:51;;;;;;;8.60;2.17;;;;;;;13.05;100.00;101105.31;5077544;28;20484;-85
2023/10/04 03:51:21;;;;;;;4.85;2.10;;;;;;;13.10;100.00;101104.66;5076475;28;20036;-85
2023/10/04 03:53:51;;;;;;;4.57;2.08;;;;;;;13.18;100.00;101102.22;5078446;28;20020;-84
2023/10/04 03:56:17;;;;;;;5.70;1.48;;;;;;;13.21;100.00;101101.22;5060743;28;20102;-84
2023/10/04 03:58:44;;;;;;;5.25;1.88;;;;;;;13.27;100.00;101102.91;5058925;28;20041;-85
2023/10/04 04:01:13;;;;;;;6.88;1.73;;;;;;;13.26;100.00;101107.06;5057836;28;20070;-86
2023/10/04 04:03:49;;;;;;;5.53;1.80;;;;;;;13.24;100.00;101100.25;5087467;28;20029;-85
2023/10/04 04:06:14;;;;;;;2.55;1.58;;;;;;;13.22;100.00;101109.34;5067571;28;20056;-83
2023/10/04 04:08:42;;;;;;;7.22;1.75;;;;;;;13.16;100.00;101119.13;5079158;28;20419;-85
2023/10/04 04:11:08;;;;;;;5.65;1.55;;;;;;;13.17;100.00;101130.09;5075554;28;20488;-84
2023/10/04 04:13:36;;;;;;;7.25;1.70;;;;;;;13.19;100.00;101136.16;5072989;28;20029;-85
2023/10/04 04:16:09;;;;;;;5.50;1.50;;;;;;;13.20;100.00;101140.59;5074664;28;20055;-85
2023/10/04 04:18:37;;;;;;;5.63;1.58;;;;;;;13.25;100.00;101139.13;5074454;28;20013;-84
2023/10/04 04:21:05;;;;;;;4.68;1.70;;;;;;;13.20;100.00;101131.19;5074873;28;20093;-83
2023/10/04 04:23:32;;;;;;;8.80;1.80;;;;;;;13.30;100.00;101147.06;5073610;28;20024;-84
2023/10/04 04:26:00;;;;;;;2.58;1.73;;;;;;;13.30;100.00;101150.72;5075097;28;20071;-83
2023/10/04 04:28:26;;;;;;;5.95;1.98;;;;;;;13.29;100.00;101160.63;5073474;28;20029;-84
2023/10/04 04:30:53;;;;;;;5.68;1.90;;;;;;;13.30;100.00;101158.53;5073102;28;20477;-85
2023/10/04 04:33:25;;;;;;;7.72;1.92;;;;;;;13.30;100.00;101162.19;5072945;28;20056;-85
2023/10/04 04:35:52;;;;;;;7.50;2.40;;;;;;;13.21;100.00;101153.66;5073044;28;20031;-84
2023/10/04 04:38:35;;;;;;;6.28;1.85;;;;;;;13.12;100.00;101134.44;5076476;28;20063;-85
2023/10/04 04:41:05;;;;;;;5.07;1.85;;;;;;;13.23;100.00;101145.38;5078131;28;20024;-87
2023/10/04 04:43:45;;;;;;;3.35;1.80;;;;;;;13.29;100.00;101157.75;5079020;28;20020;-86
2023/10/04 04:46:13;;;;;;;5.70;2.03;;;;;;;13.33;100.00;101166.19;5077466;28;20488;-86
2023/10/04 04:48:41;;;;;;;6.50;1.80;;;;;;;13.33;100.00;101166.19;5076966;28;20020;-86
2023/10/04 04:53:36;;;;;;;6.60;1.65;;;;;;;13.16;100.00;101147.81;5073272;28;20044;-90
2023/10/04 04:56:01;;;;;;;4.20;1.80;;;;;;;13.13;100.00;101149.59;5072975;28;20143;-87
2023/10/04 04:58:32;;;;;;;9.52;1.98;;;;;;;13.21;100.00;101170.09;5056416;28;20040;-89
2023/10/04 05:01:01;;;;;;;3.08;1.50;;;;;;;13.16;100.00;101165.03;5074075;28;20036;-84
2023/10/04 05:03:28;;;;;;;4.47;1.38;;;;;;;13.13;100.00;101163.94;5074074;28;20358;-86
2023/10/04 05:05:55;;;;;;;3.58;1.70;;;;;;;13.12;100.00;101166.03;5073392;28;20071;-87
2023/10/04 05:08:22;;;;;;;4.13;1.65;;;;;;;13.11;100.00;101164.44;5056864;28;20035;-85
2023/10/04 05:10:49;;;;;;;10.68;1.98;;;;;;;13.09;100.00;101175.63;5056339;28;20079;-86
2023/10/04 05:13:18;;;;;;;6.82;1.50;;;;;;;13.03;100.00;101156.69;5074907;28;20384;-86
2023/10/04 05:15:49;;;;;;;2.70;1.40;;;;;;;13.08;100.00;101173.22;5072053;28;20396;-85
2023/10/04 05:18:23;;;;;;;6.68;1.58;;;;;;;13.01;100.00;101167.84;5072552;28;20033;-81
2023/10/04 05:21:00;;;;;;;7.28;2.00;;;;;;;13.04;100.00;101179.16;5073097;28;20033;-80
2023/10/04 05:23:28;;;;;;;7.63;1.98;;;;;;;13.03;100.00;101182.50;5054662;28;20028;-78
2023/10/04 05:25:57;;;;;;;3.13;1.30;;;;;;;13.04;100.00;101184.09;5072003;28;20016;-78
2023/10/04 05:28:24;;;;;;;4.88;1.40;;;;;;;13.02;100.00;101193.19;5073599;28;20465;-80
2023/10/04 05:30:51;;;;;;;5.10;1.60;;;;;;;13.03;100.00;101188.25;5072465;28;20075;-79
2023/10/04 05:33:25;;;;;;;4.90;1.58;;;;;;;13.04;100.00;101196.38;5055750;28;20029;-77
2023/10/04 05:35:55;;;;;;;10.52;3.60;;;;;;;13.05;100.00;101195.06;5071956;28;20067;-79
2023/10/04 05:38:23;;;;;;;4.70;1.75;;;;;;;13.06;100.00;101187.25;5072079;28;20112;-79
2023/10/04 05:40:51;;;;;;;4.78;1.75;;;;;;;13.20;100.00;101202.94;5072036;28;20036;-79
2023/10/04 05:43:17;;;;;;;6.40;1.52;;;;;;;13.34;100.00;101205.09;5072020;28;20028;-80
2023/10/04 05:45:45;;;;;;;3.50;1.80;;;;;;;13.36;100.00;101211.91;5057675;28;20096;-87
2023/10/04 05:48:14;;;;;;;4.18;1.38;;;;;;;13.47;100.00;101211.34;5076671;28;20028;-86
2023/10/04 05:50:40;;;;;;;8.68;1.60;;;;;;;13.49;100.00;101223.94;5072860;28;20041;-83
2023/10/04 05:53:09;;;;;;;5.43;1.27;;;;;;;13.51;100.00;101212.78;5072851;28;20037;-84
2023/10/04 05:55:36;;;;;;;4.53;1.60;;;;;;;13.63;100.00;101215.88;5079699;28;20068;-85
2023/10/04 05:58:08;;;;;;;9.32;3.10;;;;;;;13.60;100.00;101216.84;5092823;28;20489;-79
2023/10/04 06:00:42;;;;;;;6.15;1.80;;;;;;;13.68;100.00;101224.63;5060354;28;20032;-81
2023/10/04 06:03:12;;;;;;;2.88;1.48;;;;;;;13.63;100.00;101236.00;5079610;28;20034;-80
2023/10/04 06:05:47;;;;;;;5.78;1.48;;;;;;;13.82;100.00;101238.22;5078869;28;20036;-79
2023/10/04 06:08:22;;;;;;;3.55;1.52;;;;;;;14.02;100.00;101234.66;5097722;28;20020;-80
2023/10/04 06:10:56;;;;;;;2.75;1.27;;;;;;;14.11;100.00;101243.19;5080561;28;20028;-80
2023/10/04 06:13:25;;;;;;;3.97;1.40;;;;;;;14.13;100.00;101245.56;5079692;28;20115;-82
2023/10/04 06:15:53;;;;;;;5.40;1.60;;;;;;;14.18;100.00;101245.66;5084355;28;20024;-85
2023/10/04 06:18:22;;;;;;;3.95;1.35;;;;;;;14.32;100.00;101247.75;5097608;28;20080;-86
2023/10/04 06:20:49;;;;;;;10.85;2.72;;;;;;;14.63;100.00;101250.13;5097186;28;20030;-85
2023/10/04 06:23:16;;;;;;;14.25;2.92;;;;;;;15.28;100.00;101257.38;5096400;28;20032;-84
2023/10/04 06:25:46;;;;;;;6.28;2.22;;;;;;;16.12;100.00;101246.88;5078089;28;20085;-84
2023/10/04 06:28:12;;;;;;;4.60;1.48;;;;;;;17.07;100.00;101260.03;5095007;28;20063;-85
2023/10/04 06:30:41;;;;;;;10.63;2.30;;;;;;;18.03;100.00;101253.41;5095607;28;20035;-84
2023/10/04 06:33:16;;;;;;;7.13;1.95;;;;;;;18.78;100.00;101235.03;5077430;28;20473;-84
2023/10/04 06:35:43;;;;;;;6.68;2.10;;;;;;;19.64;100.00;101244.59;5095609;28;20469;-86
2023/10/04 06:38:10;;;;;;;10.80;4.60;;;;;;;20.07;100.00;101236.22;5095141;28;20154;-86
2023/10/04 06:40:40;;;;;;;5.50;1.38;;;;;;;20.53;100.00;101209.22;5061024;28;20135;-87
2023/10/04 06:43:08;;;;;;;17.00;6.22;;;;;;;21.16;100.00;101219.72;5095661;28;20060;-84
2023/10/04 06:45:35;;;;;;;13.23;5.53;;;;;;;21.58;100.00;101233.50;5094792;28;20040;-85
2023/10/04 06:48:03;;;;;;;10.95;3.65;;;;;;;21.94;100.00;101234.06;5077221;28;20039;-85
2023/10/04 06:50:37;;;;;;;3.65;1.63;;;;;;;22.28;100.00;101231.47;5095614;28;20035;-86
2023/10/04 06:53:03;;;;;;;4.25;1.30;;;;;;;22.55;100.00;101231.59;5079935;28;20032;-85
2023/10/04 06:55:37;;;;;;;5.32;1.63;;;;;;;22.67;100.00;101233.75;5095525;28;20119;-85
2023/10/04 06:58:10;;;;;;;5.07;1.58;;;;;;;22.86;100.00;101245.38;5078975;28;20370;-87
2023/10/04 07:00:38;;;;;;;8.95;3.28;;;;;;;23.00;100.00;101240.38;5096907;28;20093;-86
2023/10/04 07:03:04;;;;;;;3.95;1.50;;;;;;;23.19;100.00;101214.81;5061873;28;20034;-86
2023/10/04 07:05:38;;;;;;;2.60;1.35;;;;;;;23.24;100.00;101225.59;5080657;28;20019;-86
2023/10/04 07:08:13;;;;;;;6.90;2.67;;;;;;;23.29;100.00;101239.28;5063137;28;20373;-88
2023/10/04 07:10:39;;;;;;;5.13;1.60;;;;;;;23.24;100.00;101231.41;5099095;28;20024;-87
2023/10/04 07:13:07;;;;;;;9.65;2.88;;;;;;;23.33;100.00;101228.84;5085121;28;20101;-86
2023/10/04 07:15:35;;;;;;;5.55;2.42;;;;;;;23.65;100.00;101234.59;5112069;28;20024;-87
2023/10/04 07:18:06;;;;;;;5.30;3.10;;;;;;;23.96;100.00;101250.34;5118155;28;20533;-87
2023/10/04 07:20:33;;;;;;;3.47;1.17;;;;;;;23.96;100.00;101241.56;5083544;28;20109;-86
2023/10/04 07:23:03;;;;;;;5.70;1.80;;;;;;;23.95;100.00;101239.25;5073970;28;20032;-87
2023/10/04 07:25:34;;;;;;;4.40;1.58;;;;;;;23.98;100.00;101241.81;5070468;28;20044;-86
2023/10/04 07:28:09;;;;;;;6.35;2.53;;;;;;;24.17;100.00;101247.47;5100230;28;20434;-85
2023/10/04 07:30:36;;;;;;;4.70;2.08;;;;;;;24.20;100.00;101246.34;5070277;28;20080;-86
2023/10/04 07:33:02;;;;;;;7.63;2.20;;;;;;;24.15;100.00;101244.31;5100173;28;20020;-86
2023/10/04 07:35:28;;;;;;;6.43;2.65;;;;;;;23.93;100.00;101247.78;5098804;28;20043;-85
2023/10/04 07:37:56;;;;;;;4.50;1.77;;;;;;;23.67;100.00;101252.31;5083057;28;20099;-87
2023/10/04 07:40:24;;;;;;;2.42;1.27;;;;;;;23.71;100.00;101252.75;5062594;28;20031;-87
2023/10/04 07:42:59;;;;;;;3.47;1.88;;;;;;;23.68;100.00;101253.88;5083093;28;20036;-87
2023/10/04 07:45:28;;;;;;;4.38;1.35;;;;;;;23.64;100.00;101256.34;5068372;28;20051;-87
2023/10/04 07:47:54;;;;;;;4.70;1.38;;;;;;;23.51;100.00;101265.06;5082430;28;20112;-87
2023/10/04 07:50:23;;;;;;;2.15;1.30;;;;;;;23.41;100.00;101263.19;5077828;28;20028;-86
2023/10/04 07:53:04;;;;;;;6.47;1.70;;;;;;;23.31;100.00;101277.41;5077870;28;20047;-88
2023/10/04 07:55:33;;;;;;;;;;;;;;;23.19;100.00;101276.84;5060779;28;20389;-91
2023/10/04 07:58:03;;;;;;;8.43;2.22;;;;;;;23.18;100.00;101262.81;5074609;28;19916;-85
2023/10/04 08:00:29;;;;;;;2.88;1.20;;;;;;;23.05;100.00;101263.59;5074681;28;20024;-85
2023/10/04 08:02:57;;;;;;;3.00;1.48;;;;;;;22.91;100.00;101254.00;5075035;28;20024;-87
2023/10/04 08:05:27;;;;;;;3.63;1.92;;;;;;;22.73;100.00;101265.72;5080414;28;20025;-87
2023/10/04 08:07:55;;;;;;;11.05;2.30;;;;;;;22.29;100.00;101255.56;5076765;28;20032;-88
2023/10/04 08:10:36;;;;;;;4.75;2.30;;;;;;;21.95;100.00;101266.88;5081724;28;20071;-88
2023/10/04 08:13:04;;;;;;;4.63;1.10;;;;;;;21.78;100.00;101267.09;5078190;28;20036;-87
2023/10/04 08:15:30;;;;;;;4.72;1.50;;;;;;;21.62;100.00;101263.09;5077516;28;20033;-87
2023/10/04 08:17:58;;;;;;;2.15;1.40;;;;;;;21.55;100.00;101266.59;5076778;28;20303;-85
2023/10/04 08:20:24;;;;;;;5.32;1.60;;;;;;;21.64;100.00;101272.03;5078088;28;20025;-89
2023/10/04 08:22:50;;;;;;;5.15;1.73;;;;;;;21.54;100.00;101262.09;5086587;28;20047;-88
2023/10/04 08:25:21;;;;;;;2.22;1.15;;;;;;;21.48;100.00;101243.97;5057771;28;20035;-79
2023/10/04 08:27:47;;;;;;;4.93;1.20;;;;;;;21.72;100.00;101263.50;5074051;28;20032;-82
2023/10/04 08:30:15;;;;;;;6.82;1.60;;;;;;;21.72;100.00;101256.88;5057208;28;20021;-80
2023/10/04 08:32:41;;;;;;;3.95;1.70;;;;;;;22.01;100.00;101262.56;5076249;28;20025;-80
2023/10/04 08:35:28;;;;;;;4.13;1.42;;;;;;;22.24;100.00;101271.00;5075126;28;20041;-81
2023/10/04 08:37:57;;;;;;;6.18;1.80;;;;;;;22.37;100.00;101277.66;5074424;28;20025;-81
2023/10/04 08:40:26;;;;;;;3.38;1.33;;;;;;;22.50;100.00;101269.00;5072854;28;20389;-79
2023/10/04 08:42:52;;;;;;;4.32;1.33;;;;;;;22.71;100.00;101275.03;5074163;28;20025;-78
2023/10/04 08:45:19;;;;;;;3.80;1.50;;;;;;;22.89;100.00;101268.38;5072794;28;20474;-80
2023/10/04 08:47:52;;;;;;;2.97;1.17;;;;;;;23.09;100.00;101275.72;5074423;28;20103;-80
2023/10/04 08:50:36;;;;;;;2.22;1.10;;;;;;;23.15;100.00;101267.66;5073692;28;20063;-80
2023/10/04 08:53:25;;;;;;;3.38;1.25;;;;;;;23.03;99.83;101263.34;5073765;28;20096;-83
2023/10/04 08:56:02;;;;;;;1.98;1.15;;;;;;;22.70;98.89;101272.66;5082337;28;20035;-79
2023/10/04 08:58:31;;;;;;;1.98;0.93;;;;;;;22.28;100.00;101265.63;5076227;28;20081;-83
2023/10/04 09:00:58;;;;;;;4.43;1.55;;;;;;;21.84;100.00;101267.03;5094338;28;20027;-82
2023/10/04 09:03:24;;;;;;;4.00;1.70;;;;;;;21.47;100.00;101271.47;5094098;28;20088;-79
2023/10/04 09:05:52;;;;;;;4.35;1.67;;;;;;;21.20;100.00;101279.13;5042838;28;20544;-82
2023/10/04 09:08:17;;;;;;;7.43;1.50;;;;;;;21.02;100.00;101255.81;5059696;28;20103;-81
2023/10/04 09:10:43;;;;;;;3.55;1.38;;;;;;;20.59;100.00;101244.03;5060353;28;20101;-82
2023/10/04 09:13:10;;;;;;;6.15;1.30;;;;;;;20.59;100.00;101256.44;5094520;28;20027;-82
2023/10/04 09:15:37;;;;;;;6.78;1.60;;;;;;;20.69;100.00;101254.75;5095972;28;20056;-84
2023/10/04 09:18:04;;;;;;;5.82;1.88;;;;;;;20.68;100.00;101267.72;5076953;28;20024;-83
2023/10/04 09:20:31;;;;;;;3.35;1.30;;;;;;;20.48;100.00;101276.06;5061698;28;20024;-84
2023/10/04 09:23:01;;;;;;;4.53;1.40;;;;;;;20.32;100.00;101269.81;5094887;28;20444;-79
2023/10/04 09:25:45;;;;;;;5.93;1.63;;;;;;;20.30;100.00;101278.28;5077740;28;20024;-84
2023/10/04 09:28:11;;;;;;;6.97;1.55;;;;;;;20.18;100.00;101259.38;5095370;28;21964;-84
2023/10/04 09:30:36;;;;;;;7.38;1.50;;;;;;;20.24;100.00;101270.94;5096515;28;20028;-83
2023/10/04 09:33:20;;;;;;;4.97;1.50;;;;;;;20.16;100.00;101276.53;5079217;28;20090;-86
2023/10/04 09:35:46;;;;;;;4.78;1.60;;;;;;;19.92;100.00;101250.25;5062365;28;20042;-86
2023/10/04 09:38:22;;;;;;;4.07;1.50;;;;;;;20.15;100.00;101282.88;5097034;28;20052;-84
2023/10/04 09:40:54;;;;;;;2.92;1.00;;;;;;;20.09;100.00;101277.09;5061729;28;20079;-82
2023/10/04 09:43:37;;;;;;;4.55;1.23;;;;;;;19.89;100.00;101268.75;5092446;28;20040;-84
2023/10/04 09:46:07;;;;;;;1.88;1.08;;;;;;;19.74;100.00;101292.28;5075462;28;20032;-81
2023/10/04 09:48:33;;;;;;;2.10;0.82;;;;;;;19.65;100.00;101283.88;5093762;28;20024;-82
2023/10/04 09:51:00;;;;;;;6.72;1.52;;;;;;;19.57;100.00;101279.94;5093859;28;20034;-83
2023/10/04 09:53:26;;;;;;;2.78;1.33;;;;;;;19.61;100.00;101282.59;5080145;28;20094;-86
2023/10/04 09:55:53;;;;;;;5.38;1.42;;;;;;;19.45;100.00;101276.31;5076800;28;20507;-85
2023/10/04 09:58:23;;;;;;;3.60;1.77;;;;;;;19.44;100.00;101286.31;5076770;28;20065;-82
2023/10/04 10:00:50;;;;;;;6.03;1.33;;;;;;;19.24;100.00;101269.25;5058836;28;20074;-82
2023/10/04 10:03:26;;;;;;;3.65;1.52;;;;;;;19.18;100.00;101276.38;5074925;28;20028;-81
2023/10/04 10:06:09;;;;;;;6.25;1.48;;;;;;;19.05;100.00;101279.78;5075140;28;20480;-86
2023/10/04 10:08:38;;;;;;;3.83;1.23;;;;;;;19.01;100.00;101282.19;5093653;28;20024;-80
2023/10/04 10:11:04;;;;;;;2.70;1.85;;;;;;;19.04;100.00;101281.09;5093250;28;20024;-82
2023/10/04 10:13:30;;;;;;;4.70;1.23;;;;;;;19.09;100.00;101283.22;5058073;28;20043;-83
2023/10/04 10:15:57;;;;;;;4.43;1.20;;;;;;;19.21;100.00;101281.91;5075043;28;20024;-85
2023/10/04 10:18:23;;;;;;;3.03;1.20;;;;;;;19.34;100.00;101278.44;5058371;28;20035;-83
2023/10/04 10:20:49;;;;;;;2.00;1.20;;;;;;;19.36;100.00;101272.91;5075352;28;20103;-81
2023/10/04 10:23:16;;;;;;;2.97;1.10;;;;;;;19.45;100.00;101273.41;5093061;28;20110;-82
2023/10/04 10:26:18;;;;;;;4.43;1.23;;;;;;;19.54;100.00;101275.22;5074814;28;20043;-81
2023/10/04 10:28:47;;;;;;;5.97;1.50;;;;;;;19.68;100.00;101264.63;5061573;28;20030;-81
2023/10/04 10:31:20;;;;;;;5.75;1.23;;;;;;;19.75;100.00;101269.88;5090246;28;20031;-82
2023/10/04 10:33:54;;;;;;;3.50;1.35;;;;;;;19.78;100.00;101265.88;5076150;28;20401;-83
2023/10/04 10:36:31;;;;;;;9.27;1.75;;;;;;;19.75;100.00;101255.38;5108004;28;20027;-82
2023/10/04 10:38:58;;;;;;;5.30;1.15;;;;;;;19.72;100.00;101262.22;5105687;28;20051;-83
2023/10/04 10:41:35;;;;;;;2.53;1.60;;;;;;;19.80;100.00;101271.97;5083616;28;20548;-87
2023/10/04 10:44:19;;;;;;;2.95;1.40;;;;;;;19.73;100.00;101269.59;5093925;28;20040;-82
2023/10/04 10:46:59;;;;;;;2.53;1.50;;;;;;;19.45;100.00;101261.81;5095213;28;20529;-82
2023/10/04 10:49:51;;;;;;;3.47;1.45;;;;;;;19.51;100.00;101267.59;5096974;28;20027;-83
2023/10/04 10:52:23;;;;;;;4.47;1.60;;;;;;;19.43;100.00;101244.16;5069445;28;20396;-82
2023/10/04 10:54:50;;;;;;;5.05;1.20;;;;;;;19.52;100.00;101245.97;5096216;28;20099;-83
2023/10/04 10:57:18;;;;;;;8.23;1.67;;;;;;;19.62;100.00;101258.03;5078919;28;20507;-83
2023/10/04 10:59:43;;;;;;;3.47;1.20;;;;;;;19.52;100.00;101231.47;5098281;28;20102;-84
2023/10/04 11:02:09;;;;;;;4.13;1.55;;;;;;;19.51;100.00;101204.56;5096747;28;20063;-81
2023/10/04 11:04:34;;;;;;;5.00;1.45;;;;;;;19.64;100.00;101221.41;5097719;28;20028;-83
2023/10/04 11:07:00;;;;;;;5.40;1.80;;;;;;;19.84;100.00;101252.16;5098979;28;20077;-82
2023/10/04 11:09:26;;;;;;;9.60;1.70;;;;;;;19.81;100.00;101247.41;5099251;28;20073;-86
2023/10/04 11:11:54;;;;;;;4.13;1.30;;;;;;;19.74;100.00;101247.97;5086843;28;20493;-85
2023/10/04 11:14:20;;;;;;;4.35;1.52;;;;;;;19.70;100.00;101250.38;5063023;28;20032;-84
2023/10/04 11:16:45;;;;;;;5.35;1.42;;;;;;;19.71;100.00;101237.47;5078478;28;20104;-81
2023/10/04 11:19:12;;;;;;;3.15;1.23;;;;;;;19.69;100.00;101246.69;5096028;28;20107;-81
2023/10/04 11:21:39;;;;;;;2.47;1.27;;;;;;;19.71;100.00;101254.88;5095772;28;20127;-81
2023/10/04 11:24:05;;;;;;;4.50;1.45;;;;;;;19.72;100.00;101256.41;5077449;28;20103;-82
2023/10/04 11:26:30;;;;;;;4.95;1.50;;;;;;;19.64;100.00;101252.50;5077475;28;20118;-81
2023/10/04 11:28:59;;;;;;;3.83;1.42;;;;;;;19.63;100.00;101251.72;5095924;28;20484;-80
2023/10/04 11:31:25;;;;;;;5.68;1.88;;;;;;;19.63;100.00;101242.22;5077749;28;20024;-80
2023/10/04 11:33:53;;;;;;;3.92;1.10;;;;;;;19.47;100.00;101241.75;5060450;28;20028;-80